Hauptseite
METAR-TAF:

METAR-TAF

Flughäfen :

Flughafen Paderborn/Lippstadt

Paderborn-Lippstadt, Deutschland

Breite: 51-37N, Länge: 008-37E, Höhe: 213 m

Beobachtung

Neuester Wetterbericht von vor 32 Minuten, um 11:50 UTC
Wind 7 kt aus Ost/Südost
Temperatur 12°C
Luftfeuchtigkeit 54%
Luftdruck 1029 hPa
Sichtweite 10 km oder mehr
keine Wolken unter 1500 m und keine Kumulonimbus oder Gewitterwolken

METAR: EDLP 161150Z 12007KT CAVOK 12/03 Q1029

Zeit: 13:22 (12:22 UTC)

Prognose

Neuester Wetterbericht von vor 1 Stunde und 22 Minuten, um 11:00 UTC
Gültige Prognose vom 16 um 12 UTC bis 17 um 12 UTC
Wind 9 kt aus Ost/Südost
Sichtweite 10 km oder mehr
keine Wolken unter 1500 m und keine Kumulonimbus oder Gewitterwolken

TAF: EDLP 161100Z 1612/1712 11009KT CAVOK

Wetterbeobachtungen und Prognosen von mehr als 4000 Flughäfen (METAR und TAF Bericht).

Die verfügbaren Stationen werden durch gelbe und rote Markierungen auf der Karte dargestellt.

Führen Sie die Maus auf sie, um den Namen der Station zu sehen.

Darauf klicken, um die Beobachtung von Wetterbeobachtungen und Prognosen zu sehen.

Um die Karte zu ändern : klicken Sie auf den grünen Tasten mit einem schwarzen Kreuz Zum Vergrößern, auf den grünen Button mit einem Gedankenstrich zu verkleinern, oder auf die grünen Pfeile für benachbarte Karten.


METAR-TAF: